This is the latest recevied weather packets stored in our database for station/object TONGUE. If no packets are shown the sender has not sent any weather packets the latest 10 day(s).
| Time | Temp. | Humidity | Pressure | Rain* | Wind** | Luminosity | Snow |
|---|---|---|---|---|---|---|---|
| 1777606803 | 12.22° C | 96% | 0 hPa | - | - | - | - |
| 1777606203 | 12.78° C | 95% | 0 hPa | - | - | - | - |
| 1777605603 | 12.78° C | 94% | 0 hPa | - | - | - | - |
| 1777605003 | 13.33° C | 93% | 0 hPa | - | - | - | - |
| 1777604403 | 13.89° C | 90% | 0 hPa | - | - | - | - |
| 1777603803 | 13.89° C | 88% | 0 hPa | - | - | - | - |
| 1777603202 | 14.44° C | 88% | 0 hPa | - | - | - | - |
| 1777602603 | 15° C | 86% | 0 hPa | - | - | - | - |
| 1777602003 | 15° C | 84% | 0 hPa | - | - | - | - |
| 1777601403 | 15.56° C | 81% | 0 hPa | - | - | - | - |
| 1777600804 | 15.56° C | 80% | 0 hPa | - | - | - | - |
| 1777600203 | 16.11° C | 80% | 0 hPa | - | - | - | - |
| 1777599603 | 16.67° C | 75% | 0 hPa | - | - | - | - |
| 1777599003 | 17.22° C | 73% | 0 hPa | - | - | - | - |
| 1777598403 | 18.89° C | 65% | 0 hPa | - | - | - | - |
| 1777597803 | 19.44° C | 59% | 0 hPa | - | - | - | - |
| 1777597204 | 18.89° C | 60% | 0 hPa | - | - | - | - |
| 1777596603 | 19.44° C | 59% | 0 hPa | - | - | - | - |
| 1777596003 | 19.44° C | 61% | 0 hPa | - | - | - | - |
| 1777595403 | 18.89° C | 60% | 0 hPa | - | - | - | - |
| 1777594803 | 20° C | 59% | 0 hPa | - | - | - | - |
| 1777594203 | 21.11° C | 54% | 0 hPa | - | - | - | - |
| 1777593603 | 21.67° C | 51% | 0 hPa | - | - | - | - |
| 1777593004 | 21.11° C | 53% | 0 hPa | - | - | - | - |
| 1777592404 | 21.11° C | 52% | 0 hPa | - | - | - | - |
* Rain since midnight (hover to see other rain measurements)
** Current wind speed in m/s (hover to see current wind gust speed)